createdAt,value
2022-07-26T00:00:14.634Z,95720.63
2022-07-26T00:02:48.368Z,95726.34
2022-07-26T00:05:16.820Z,95717.94
2022-07-26T00:07:44.751Z,95705.28
2022-07-26T00:10:11.851Z,95706.13
2022-07-26T00:12:39.131Z,95708.41
2022-07-26T00:15:09.029Z,95709.97
2022-07-26T00:17:36.130Z,95724.22
2022-07-26T00:20:04.310Z,95722.38
2022-07-26T00:22:39.681Z,95716.66
2022-07-26T00:25:09.262Z,95723.16
2022-07-26T00:27:37.497Z,95711.56
2022-07-26T00:30:09.729Z,95706.66
2022-07-26T00:32:37.412Z,95702.91
2022-07-26T00:35:05.670Z,95702.97
2022-07-26T00:37:33.008Z,95710.69
2022-07-26T00:40:00.157Z,95703.28
2022-07-26T00:42:27.380Z,95705.41
2022-07-26T00:44:54.410Z,95708.41
2022-07-26T00:47:21.400Z,95708.94
2022-07-26T00:49:48.530Z,95705.75
2022-07-26T00:52:15.540Z,95702.03
2022-07-26T00:54:46.850Z,95698.13
2022-07-26T00:57:15.228Z,95692.75
2022-07-26T00:59:42.990Z,95688.84
2022-07-26T01:02:11.345Z,95690.84
2022-07-26T01:04:40.279Z,95685.69
2022-07-26T01:07:14.950Z,95684.44
2022-07-26T01:09:43.162Z,95670.50
2022-07-26T01:12:11.009Z,95676.06
2022-07-26T01:14:38.370Z,95665.13
2022-07-26T01:17:05.687Z,95668.72
2022-07-26T01:19:32.873Z,95673.81
2022-07-26T01:21:59.894Z,95671.97
2022-07-26T01:24:27.077Z,95672.88
2022-07-26T01:26:55.839Z,95669.47
2022-07-26T01:29:34.611Z,95669.25
2022-07-26T01:32:05.210Z,95651.44
2022-07-26T01:34:32.742Z,95658.44
2022-07-26T01:36:59.725Z,95648.06
2022-07-26T01:39:26.778Z,95646.66
2022-07-26T01:41:54.850Z,95650.78
2022-07-26T01:44:23.137Z,95657.13
2022-07-26T01:46:50.238Z,95669.34
2022-07-26T01:49:17.506Z,95663.81
2022-07-26T01:51:44.680Z,95647.16
2022-07-26T01:54:12.189Z,95650.56
2022-07-26T01:56:39.761Z,95647.34
2022-07-26T01:59:06.820Z,95655.97
2022-07-26T02:01:39.289Z,95669.06
2022-07-26T02:04:09.066Z,95652.94
2022-07-26T02:06:37.243Z,95651.94
2022-07-26T02:09:05.913Z,95650.25
2022-07-26T02:11:34.810Z,95648.38
2022-07-26T02:14:03.414Z,95657.44
2022-07-26T02:16:30.570Z,95659.88
2022-07-26T02:18:57.602Z,95663.84
2022-07-26T02:21:24.641Z,95669.66
2022-07-26T02:23:51.666Z,95681.94
2022-07-26T02:26:18.774Z,95682.22
2022-07-26T02:28:45.763Z,95665.75
2022-07-26T02:31:15.419Z,95666.53
2022-07-26T02:33:43.220Z,95654.94
2022-07-26T02:36:10.348Z,95650.22
2022-07-26T02:38:37.701Z,95636.28
2022-07-26T02:41:06.469Z,95643.50
2022-07-26T02:43:33.575Z,95652.06
2022-07-26T02:46:01.475Z,95640.97
2022-07-26T02:48:30.993Z,95640.25
2022-07-26T02:50:58.344Z,95642.09
2022-07-26T02:53:25.469Z,95644.69
2022-07-26T02:55:52.580Z,95646.81
2022-07-26T02:58:21.805Z,95639.63
2022-07-26T03:00:48.978Z,95639.63
2022-07-26T03:03:16.411Z,95642.72
2022-07-26T03:05:43.406Z,95634.19
2022-07-26T03:08:10.722Z,95622.56
2022-07-26T03:10:37.758Z,95626.06
2022-07-26T03:13:04.822Z,95621.78
2022-07-26T03:15:32.260Z,95622.41
2022-07-26T03:17:59.377Z,95618.44
2022-07-26T03:20:26.653Z,95621.47
2022-07-26T03:22:53.799Z,95629.56
2022-07-26T03:25:21.039Z,95618.34
2022-07-26T03:27:48.100Z,95624.97
2022-07-26T03:30:15.459Z,95630.53
2022-07-26T03:32:42.528Z,95634.75
2022-07-26T03:35:09.682Z,95631.81
2022-07-26T03:37:45.516Z,95644.19
2022-07-26T03:40:18.402Z,95643.22
2022-07-26T03:42:47.117Z,95634.78
2022-07-26T03:45:15.879Z,95645.94
2022-07-26T03:47:43.471Z,95638.84
2022-07-26T03:50:11.638Z,95651.78
2022-07-26T03:52:38.762Z,95649.44
2022-07-26T03:55:25.661Z,95664.06
2022-07-26T03:57:52.862Z,95675.16
2022-07-26T04:00:19.980Z,95682.19
2022-07-26T04:02:47.170Z,95686.38
2022-07-26T04:05:14.362Z,95685.22
2022-07-26T04:07:52.848Z,95686.16
2022-07-26T04:10:22.356Z,95688.53
2022-07-26T04:12:50.680Z,95697.91
2022-07-26T04:15:19.334Z,95700.59
2022-07-26T04:17:48.533Z,95700.69
2022-07-26T04:20:16.134Z,95713.81
2022-07-26T04:22:43.662Z,95717.63
2022-07-26T04:25:11.162Z,95724.69
2022-07-26T04:27:38.828Z,95736.88
2022-07-26T04:30:12.376Z,95749.69
2022-07-26T04:32:42.252Z,95751.59
2022-07-26T04:35:09.858Z,95751.53
2022-07-26T04:37:44.152Z,95763.13
2022-07-26T04:40:15.797Z,95758.31
2022-07-26T04:42:43.451Z,95759.69
2022-07-26T04:45:12.318Z,95772.50
2022-07-26T04:47:49.162Z,95777.31
2022-07-26T04:50:17.047Z,95785.53
2022-07-26T04:52:44.112Z,95783.41
2022-07-26T04:55:11.708Z,95784.06
2022-07-26T04:57:38.845Z,95796.84
2022-07-26T05:00:21.147Z,95797.69
2022-07-26T05:02:50.804Z,95811.78
2022-07-26T05:05:18.024Z,95815.25
2022-07-26T05:07:47.815Z,95816.56
2022-07-26T05:10:16.560Z,95818.72
2022-07-26T05:12:43.679Z,95823.84
2022-07-26T05:15:13.784Z,95821.16
2022-07-26T05:17:43.356Z,95840.78
2022-07-26T05:20:12.505Z,95837.53
2022-07-26T05:22:39.950Z,95832.06
2022-07-26T05:25:07.892Z,95841.38
2022-07-26T05:27:34.781Z,95843.84
2022-07-26T05:30:01.801Z,95839.09
2022-07-26T05:32:28.849Z,95851.91
2022-07-26T05:34:56.008Z,95855.19
2022-07-26T05:37:23.161Z,95848.09
2022-07-26T05:39:50.238Z,95854.41
2022-07-26T05:42:17.380Z,95861.75
2022-07-26T05:44:44.567Z,95865.66
2022-07-26T05:47:11.779Z,95871.81
2022-07-26T05:49:39.718Z,95882.28
2022-07-26T05:52:08.304Z,95896.13
2022-07-26T05:54:36.240Z,95901.59
2022-07-26T05:57:03.502Z,95908.25
2022-07-26T05:59:30.609Z,95920.09
2022-07-26T06:01:57.721Z,95915.31
2022-07-26T06:04:26.562Z,95917.19
2022-07-26T06:06:55.134Z,95909.59
2022-07-26T06:09:24.433Z,95918.13
2022-07-26T06:11:51.704Z,95922.38
2022-07-26T06:14:19.440Z,95926.25
2022-07-26T06:16:50.108Z,95906.28
2022-07-26T06:19:17.431Z,95893.53
2022-07-26T06:21:45.948Z,95862.88
2022-07-26T06:24:13.524Z,95848.06
2022-07-26T06:26:40.851Z,95845.13
2022-07-26T06:29:08.179Z,95844.34
2022-07-26T06:31:35.540Z,95843.47
2022-07-26T06:34:02.762Z,95851.13
2022-07-26T06:36:31.004Z,95858.19
2022-07-26T06:38:58.992Z,95859.59
2022-07-26T06:41:26.602Z,95854.41
2022-07-26T06:43:53.983Z,95853.97
2022-07-26T06:46:21.885Z,95860.19
2022-07-26T06:48:52.500Z,95866.00
2022-07-26T06:51:20.487Z,95861.31
2022-07-26T06:53:47.531Z,95868.47
2022-07-26T06:56:15.247Z,95873.63
2022-07-26T06:58:43.202Z,95873.53
2022-07-26T07:01:10.313Z,95874.16
2022-07-26T07:03:38.045Z,95863.28
2022-07-26T07:06:05.370Z,95868.91
2022-07-26T07:08:32.410Z,95862.75
2022-07-26T07:10:59.799Z,95866.03
2022-07-26T07:13:29.072Z,95872.59
2022-07-26T07:15:56.603Z,95861.38
2022-07-26T07:18:23.784Z,95865.63
2022-07-26T07:20:51.060Z,95875.78
2022-07-26T07:23:18.156Z,95876.16
2022-07-26T07:25:45.150Z,95880.00
2022-07-26T07:28:12.509Z,95881.81
2022-07-26T07:30:39.517Z,95894.59
2022-07-26T07:33:09.556Z,95897.28
2022-07-26T07:35:50.706Z,95890.56
2022-07-26T07:38:18.001Z,95898.78
2022-07-26T07:40:46.250Z,95892.78
2022-07-26T07:43:13.355Z,95906.09
2022-07-26T07:45:40.529Z,95913.56
2022-07-26T07:48:07.676Z,95919.28
2022-07-26T07:50:34.768Z,95922.28
2022-07-26T07:53:02.313Z,95922.63
2022-07-26T07:55:41.042Z,95924.84
2022-07-26T07:58:10.894Z,95940.59
2022-07-26T08:00:38.093Z,95940.16
2022-07-26T08:03:05.881Z,95950.19
2022-07-26T08:05:32.978Z,95956.66
2022-07-26T08:08:00.119Z,95962.00
2022-07-26T08:10:27.610Z,95969.50
2022-07-26T08:12:54.738Z,95975.53
2022-07-26T08:15:23.694Z,95979.53
2022-07-26T08:17:54.004Z,95978.44
2022-07-26T08:20:23.671Z,95978.44
2022-07-26T08:22:52.277Z,95985.69
2022-07-26T08:25:19.900Z,95985.91
2022-07-26T08:28:00.522Z,95990.72
2022-07-26T08:30:31.044Z,95988.47
2022-07-26T08:32:58.235Z,95994.28
2022-07-26T08:35:25.370Z,95989.78
2022-07-26T08:37:52.571Z,95992.84
2022-07-26T08:40:19.680Z,95994.50
2022-07-26T08:42:54.357Z,95992.59
2022-07-26T08:45:31.939Z,96003.78
2022-07-26T08:48:18.661Z,96007.66
2022-07-26T08:50:46.016Z,96004.78
2022-07-26T08:53:13.624Z,96003.31
2022-07-26T08:58:27.812Z,96003.88
2022-07-26T09:01:14.195Z,96001.50
2022-07-26T09:03:45.725Z,95998.94
2022-07-26T09:06:21.437Z,95997.34
2022-07-26T09:08:51.381Z,96011.56
2022-07-26T09:11:24.131Z,96019.63
2022-07-26T09:13:52.465Z,96025.66
2022-07-26T09:16:19.604Z,96025.19
2022-07-26T09:18:46.859Z,96021.00
2022-07-26T09:21:38.570Z,96032.94
2022-07-26T09:24:06.159Z,96035.59
2022-07-26T09:26:33.540Z,96051.00
2022-07-26T09:29:12.044Z,96048.63
2022-07-26T09:31:40.307Z,96053.91
2022-07-26T09:34:08.339Z,96053.88
2022-07-26T09:36:51.879Z,96047.94
2022-07-26T09:39:33.362Z,96048.38
2022-07-26T09:42:28.654Z,96051.81
2022-07-26T09:44:57.676Z,96043.97
2022-07-26T09:47:36.918Z,96045.28
2022-07-26T09:50:18.163Z,96044.38
2022-07-26T09:53:00.360Z,96046.09
2022-07-26T09:55:32.913Z,96053.16
2022-07-26T09:58:06.730Z,96054.44
2022-07-26T10:00:34.342Z,96054.66
2022-07-26T10:03:01.788Z,96057.22
2022-07-26T10:05:29.290Z,96066.56
2022-07-26T10:07:56.867Z,96059.13
2022-07-26T10:10:34.092Z,96060.88
2022-07-26T10:13:03.237Z,96063.31
2022-07-26T10:15:35.754Z,96068.25
2022-07-26T10:18:05.200Z,96075.97
2022-07-26T10:20:50.959Z,96069.03
2022-07-26T10:23:41.167Z,96070.03
2022-07-26T10:26:14.095Z,96070.03
2022-07-26T10:28:41.677Z,96071.75
2022-07-26T10:31:20.854Z,96061.94
2022-07-26T10:33:50.021Z,96058.56
2022-07-26T10:36:24.599Z,96068.44
2022-07-26T10:39:00.889Z,96058.28
2022-07-26T10:41:48.569Z,96060.41
2022-07-26T10:44:20.048Z,96063.59
2022-07-26T10:47:08.531Z,96053.03
2022-07-26T10:49:45.628Z,96052.34
2022-07-26T10:52:17.210Z,96053.78
2022-07-26T10:54:59.625Z,96044.22
2022-07-26T10:57:31.451Z,96049.66
2022-07-26T10:59:59.409Z,96043.09
2022-07-26T11:13:22.577Z,96039.03
2022-07-26T11:15:52.571Z,96031.59
2022-07-26T11:18:28.012Z,96035.41
2022-07-26T11:20:56.911Z,96045.03
2022-07-26T11:23:25.928Z,96054.06
2022-07-26T11:26:04.402Z,96046.59
2022-07-26T11:28:43.588Z,96055.91
2022-07-26T11:31:14.369Z,96046.69
2022-07-26T11:33:45.260Z,96049.31
2022-07-26T11:36:13.301Z,96048.56
2022-07-26T11:38:54.373Z,96037.88
2022-07-26T11:41:34.510Z,96039.69
2022-07-26T11:44:02.998Z,96041.88
2022-07-26T11:46:37.301Z,96040.84
2022-07-26T11:49:06.504Z,96043.66
2022-07-26T11:51:33.939Z,96043.44
2022-07-26T11:54:03.779Z,96041.66
2022-07-26T11:56:32.614Z,96042.00
2022-07-26T11:59:00.517Z,96042.31
2022-07-26T12:01:27.728Z,96039.00
2022-07-26T12:03:55.910Z,96036.88
2022-07-26T12:06:27.124Z,96043.53
2022-07-26T12:08:58.628Z,96039.09
2022-07-26T12:11:37.917Z,96040.88
2022-07-26T12:14:05.061Z,96037.59
2022-07-26T12:16:45.538Z,96041.25
2022-07-26T12:19:19.297Z,96033.25
2022-07-26T12:21:48.772Z,96034.16
2022-07-26T12:24:40.149Z,96033.13
2022-07-26T12:27:10.447Z,96031.41
2022-07-26T12:29:39.595Z,96021.50
2022-07-26T12:32:12.878Z,96030.84
2022-07-26T12:34:42.130Z,96018.78
2022-07-26T12:37:13.172Z,96024.44
2022-07-26T12:39:41.519Z,96013.63
2022-07-26T12:42:33.536Z,96017.41
2022-07-26T12:45:04.072Z,96010.25
2022-07-26T12:47:31.199Z,96016.13
2022-07-26T12:49:58.388Z,96009.56
2022-07-26T12:52:25.449Z,96004.94
2022-07-26T12:54:53.710Z,95997.56
2022-07-26T12:57:21.560Z,96000.06
2022-07-26T12:59:49.842Z,96001.31
2022-07-26T13:02:18.811Z,95991.34
2022-07-26T13:04:46.472Z,95991.00
2022-07-26T13:07:14.690Z,95991.03
2022-07-26T13:09:42.682Z,95974.38
2022-07-26T13:12:10.571Z,95967.03
2022-07-26T13:14:38.400Z,95976.34
2022-07-26T13:17:06.663Z,95974.81
2022-07-26T13:19:35.111Z,95977.50
2022-07-26T13:22:03.231Z,95975.56
2022-07-26T13:24:33.203Z,95977.13
2022-07-26T13:27:01.250Z,95977.13
2022-07-26T13:29:29.721Z,95974.81
2022-07-26T13:31:58.270Z,95973.63
2022-07-26T13:34:26.052Z,95968.97
2022-07-26T13:36:53.823Z,95965.44
2022-07-26T13:39:20.977Z,95968.53
2022-07-26T13:41:48.101Z,95968.41
2022-07-26T13:44:15.222Z,95971.81
2022-07-26T13:46:42.416Z,95971.75
2022-07-26T13:49:09.841Z,95980.16
2022-07-26T13:51:56.693Z,95975.88
2022-07-26T13:54:32.074Z,95974.63
2022-07-26T13:57:01.071Z,95971.91
2022-07-26T13:59:28.500Z,95971.16
2022-07-26T14:01:56.976Z,95968.63
2022-07-26T14:04:24.432Z,95960.56
2022-07-26T14:06:52.102Z,95970.81
2022-07-26T14:09:20.361Z,95965.84
2022-07-26T14:11:47.961Z,95973.63
2022-07-26T14:14:15.351Z,95972.84
2022-07-26T14:16:42.609Z,95965.84
2022-07-26T14:19:09.968Z,95977.44
2022-07-26T14:21:45.492Z,95976.28
2022-07-26T14:24:24.590Z,95972.72
2022-07-26T14:26:55.322Z,95973.84
2022-07-26T14:29:25.524Z,95971.81
2022-07-26T14:31:52.646Z,95977.16
2022-07-26T14:34:19.768Z,95974.09
2022-07-26T14:36:46.933Z,95972.31
2022-07-26T14:39:13.980Z,95975.69
2022-07-26T14:41:41.192Z,95971.75
2022-07-26T14:44:08.625Z,95965.19
2022-07-26T14:46:35.922Z,95965.94
2022-07-26T14:49:03.012Z,95956.72
2022-07-26T14:51:30.270Z,95960.94
2022-07-26T14:53:57.391Z,95957.78
2022-07-26T14:56:24.452Z,95957.50
2022-07-26T14:58:51.621Z,95962.50
2022-07-26T15:01:18.783Z,95961.91
2022-07-26T15:03:45.968Z,95962.66
2022-07-26T15:06:13.034Z,95966.47
2022-07-26T15:08:40.165Z,95959.44
2022-07-26T15:11:07.241Z,95964.41
2022-07-26T15:13:34.882Z,95966.28
2022-07-26T15:16:02.007Z,95953.38
2022-07-26T15:18:29.173Z,95956.00
2022-07-26T15:20:57.884Z,95955.59
2022-07-26T15:23:25.410Z,95964.28
2022-07-26T15:25:52.701Z,95956.03
2022-07-26T15:28:20.132Z,95962.09
2022-07-26T15:30:47.221Z,95957.47
2022-07-26T15:33:18.304Z,95957.47
2022-07-26T15:35:46.009Z,95959.59
2022-07-26T15:38:13.144Z,95961.03
2022-07-26T15:40:40.194Z,95957.84
2022-07-26T15:43:22.451Z,95959.69
2022-07-26T15:46:09.544Z,95967.75
2022-07-26T15:48:36.760Z,95969.63
2022-07-26T15:51:03.831Z,95967.34
2022-07-26T15:53:34.930Z,95973.88
2022-07-26T15:56:03.098Z,95978.69
2022-07-26T15:58:30.232Z,95985.53
2022-07-26T16:01:00.613Z,95987.66
2022-07-26T16:03:28.528Z,95979.38
2022-07-26T16:05:57.061Z,95994.69
2022-07-26T16:08:24.371Z,96000.06
2022-07-26T16:10:51.531Z,96001.38
2022-07-26T16:13:19.390Z,96003.63
2022-07-26T16:15:46.361Z,95994.47
2022-07-26T16:18:13.631Z,96003.16
2022-07-26T16:20:42.101Z,96005.13
2022-07-26T16:23:09.868Z,95992.97
2022-07-26T16:25:36.950Z,96007.84
2022-07-26T16:28:04.281Z,96010.66
2022-07-26T16:30:31.494Z,96014.16
2022-07-26T16:32:58.492Z,96020.34
2022-07-26T16:35:25.719Z,96016.53
2022-07-26T16:37:52.823Z,96014.22
2022-07-26T16:40:19.900Z,96006.19
2022-07-26T16:42:46.849Z,95999.94
2022-07-26T16:45:13.851Z,96003.75
2022-07-26T16:47:40.959Z,96003.94
2022-07-26T16:50:08.492Z,96009.28
2022-07-26T16:52:35.582Z,96010.69
2022-07-26T16:55:04.322Z,96008.44
2022-07-26T16:57:31.503Z,96006.13
2022-07-26T16:59:58.556Z,96016.09
2022-07-26T17:02:25.705Z,96008.19
2022-07-26T17:04:54.208Z,96015.53
2022-07-26T17:07:25.900Z,96018.16
2022-07-26T17:09:55.223Z,96015.38
2022-07-26T17:12:23.393Z,96013.97
2022-07-26T17:14:50.951Z,96014.44
2022-07-26T17:17:18.026Z,96014.56
2022-07-26T17:19:45.089Z,96020.91
2022-07-26T17:22:12.118Z,96024.63
2022-07-26T17:24:39.263Z,96026.09
2022-07-26T17:27:06.238Z,96029.00
2022-07-26T17:29:33.291Z,96036.81
2022-07-26T17:32:00.334Z,96042.66
2022-07-26T17:34:28.026Z,96042.44
2022-07-26T17:36:59.510Z,96035.34
2022-07-26T17:39:50.769Z,96035.47
2022-07-26T17:42:14.879Z,96062.47
2022-07-26T17:44:41.997Z,96061.59
2022-07-26T17:47:27.498Z,96080.34
2022-07-26T17:49:57.075Z,96082.31
2022-07-26T17:52:26.026Z,96087.66
2022-07-26T17:54:54.345Z,96080.56
2022-07-26T17:57:21.399Z,96089.56
2022-07-26T17:59:48.471Z,96095.22
2022-07-26T18:02:15.525Z,96093.28
2022-07-26T18:04:43.052Z,96094.84
2022-07-26T18:07:10.010Z,96097.59
2022-07-26T18:09:37.333Z,96101.84
2022-07-26T18:12:04.727Z,96099.75
2022-07-26T18:14:31.848Z,96104.56
2022-07-26T18:16:58.889Z,96113.97
2022-07-26T18:19:25.980Z,96111.88
2022-07-26T18:21:53.197Z,96108.38
2022-07-26T18:24:20.420Z,96121.06
2022-07-26T18:26:47.433Z,96115.41
2022-07-26T18:29:16.717Z,96109.50
2022-07-26T18:31:44.063Z,96103.97
2022-07-26T18:34:11.152Z,96114.69
2022-07-26T18:36:38.251Z,96112.78
2022-07-26T18:39:05.552Z,96115.16
2022-07-26T18:41:35.015Z,96122.72
2022-07-26T18:44:02.342Z,96126.31
2022-07-26T18:46:29.342Z,96131.53
2022-07-26T18:48:57.674Z,96137.16
2022-07-26T18:51:26.719Z,96131.38
2022-07-26T18:53:54.050Z,96128.84
2022-07-26T18:56:21.131Z,96127.91
2022-07-26T18:58:48.191Z,96129.66
2022-07-26T19:01:15.346Z,96135.38
2022-07-26T19:03:42.676Z,96131.44
2022-07-26T19:06:11.442Z,96136.03
2022-07-26T19:08:38.531Z,96144.38
2022-07-26T19:11:05.890Z,96138.13
2022-07-26T19:13:33.006Z,96130.28
2022-07-26T19:16:00.230Z,96135.81
2022-07-26T19:18:27.340Z,96143.75
2022-07-26T19:20:54.291Z,96143.28
2022-07-26T19:23:21.453Z,96150.19
2022-07-26T19:25:48.548Z,96143.78
2022-07-26T19:28:15.630Z,96137.97
2022-07-26T19:30:43.380Z,96145.09
2022-07-26T19:33:10.521Z,96151.09
2022-07-26T19:35:37.606Z,96153.56
2022-07-26T19:38:04.901Z,96150.44
2022-07-26T19:40:31.982Z,96149.97
2022-07-26T19:42:59.288Z,96155.19
2022-07-26T19:45:26.278Z,96156.75
2022-07-26T19:47:53.600Z,96152.13
2022-07-26T19:50:20.694Z,96143.16
2022-07-26T19:52:47.731Z,96144.44
2022-07-26T19:55:14.796Z,96140.19
2022-07-26T19:57:41.918Z,96145.25
2022-07-26T20:00:10.703Z,96153.78
2022-07-26T20:02:41.394Z,96162.63
2022-07-26T20:05:13.073Z,96162.50
2022-07-26T20:07:40.263Z,96158.09
2022-07-26T20:10:08.032Z,96152.81
2022-07-26T20:12:37.538Z,96154.22
2022-07-26T20:15:05.910Z,96155.53
2022-07-26T20:17:35.724Z,96167.50
2022-07-26T20:20:05.910Z,96165.44
2022-07-26T20:22:32.949Z,96169.72
2022-07-26T20:25:00.215Z,96161.84
2022-07-26T20:27:27.563Z,96156.81
2022-07-26T20:30:00.453Z,96161.25
2022-07-26T20:32:28.138Z,96160.00
2022-07-26T20:34:55.296Z,96163.63
2022-07-26T20:37:22.378Z,96166.59
2022-07-26T20:39:49.582Z,96176.97
2022-07-26T20:42:21.506Z,96166.31
2022-07-26T20:44:49.197Z,96167.41
2022-07-26T20:47:16.337Z,96170.56
2022-07-26T20:49:43.387Z,96173.06
2022-07-26T20:52:10.650Z,96173.06
2022-07-26T20:54:37.721Z,96178.72
2022-07-26T20:57:04.969Z,96174.78
2022-07-26T20:59:32.619Z,96174.78
2022-07-26T21:01:59.691Z,96176.97
2022-07-26T21:04:27.017Z,96178.25
2022-07-26T21:06:54.248Z,96180.00
2022-07-26T21:09:21.362Z,96181.53
2022-07-26T21:11:48.410Z,96179.03
2022-07-26T21:14:15.361Z,96173.22
2022-07-26T21:16:42.407Z,96180.28
2022-07-26T21:19:09.812Z,96182.44
2022-07-26T21:21:38.349Z,96181.38
2022-07-26T21:24:06.560Z,96174.31
2022-07-26T21:26:34.652Z,96186.84
2022-07-26T21:29:01.618Z,96187.78
2022-07-26T21:31:28.621Z,96184.97
2022-07-26T21:33:55.781Z,96187.94
2022-07-26T21:36:23.057Z,96182.13
2022-07-26T21:38:50.163Z,96180.56
2022-07-26T21:41:17.318Z,96179.91
2022-07-26T21:43:44.441Z,96177.09
2022-07-26T21:46:13.294Z,96186.19
2022-07-26T21:48:41.324Z,96180.38
2022-07-26T21:51:08.501Z,96181.94
2022-07-26T21:53:35.583Z,96182.91
2022-07-26T21:56:02.581Z,96184.63
2022-07-26T21:58:33.265Z,96181.03
2022-07-26T22:01:07.260Z,96187.16
2022-07-26T22:03:36.123Z,96183.03
2022-07-26T22:06:03.683Z,96184.13
2022-07-26T22:08:31.981Z,96190.56
2022-07-26T22:10:59.331Z,96183.81
2022-07-26T22:13:26.363Z,96184.47
2022-07-26T22:15:53.899Z,96181.00
2022-07-26T22:18:21.144Z,96176.59
2022-07-26T22:20:49.381Z,96172.69
2022-07-26T22:23:18.022Z,96176.44
2022-07-26T22:25:46.260Z,96166.69
2022-07-26T22:28:18.094Z,96165.72
2022-07-26T22:30:46.478Z,96169.97
2022-07-26T22:33:13.499Z,96175.28
2022-07-26T22:35:40.598Z,96176.38
2022-07-26T22:38:10.133Z,96177.00
2022-07-26T22:40:38.850Z,96175.28
2022-07-26T22:43:07.200Z,96178.44
2022-07-26T22:45:35.427Z,96178.13
2022-07-26T22:48:04.239Z,96172.28
2022-07-26T22:50:31.920Z,96174.50
2022-07-26T22:53:01.235Z,96180.31
2022-07-26T22:55:28.661Z,96175.94
2022-07-26T22:57:55.717Z,96172.41
2022-07-26T23:00:22.841Z,96168.13
2022-07-26T23:02:50.023Z,96173.56
2022-07-26T23:05:17.359Z,96169.97
2022-07-26T23:07:47.882Z,96174.94
2022-07-26T23:10:16.647Z,96163.19
2022-07-26T23:12:44.162Z,96158.78
2022-07-26T23:15:12.342Z,96159.38
2022-07-26T23:17:39.371Z,96163.63
2022-07-26T23:20:08.955Z,96159.19
2022-07-26T23:22:36.206Z,96173.28
2022-07-26T23:25:03.484Z,96171.09
2022-07-26T23:27:30.475Z,96174.50
2022-07-26T23:29:57.781Z,96167.91
2022-07-26T23:32:24.829Z,96159.41
2022-07-26T23:34:51.792Z,96163.19
2022-07-26T23:37:19.404Z,96160.34
2022-07-26T23:39:46.441Z,96161.63
2022-07-26T23:42:13.531Z,96167.75
2022-07-26T23:44:40.609Z,96177.94
2022-07-26T23:47:07.857Z,96172.44
2022-07-26T23:49:34.909Z,96168.97
2022-07-26T23:52:02.041Z,96166.16
2022-07-26T23:54:29.061Z,96170.13
2022-07-26T23:56:56.079Z,96171.81
2022-07-26T23:59:23.749Z,96164.75
